sensor_id;sensor_type;location;lat;lon;timestamp;pressure;altitude;pressure_sealevel;temperature;humidity
37648;BME280;23490;53.656;10.076;2023-03-22T00:01:20;99306.50;;;-145.95;100.00
37648;BME280;23490;53.656;10.076;2023-03-22T00:03:48;99331.28;;;-145.95;100.00
37648;BME280;23490;53.656;10.076;2023-03-22T00:06:14;99302.34;;;-145.95;100.00
37648;BME280;23490;53.656;10.076;2023-03-22T00:08:40;99312.69;;;-145.95;100.00
37648;BME280;23490;53.656;10.076;2023-03-22T00:11:06;99356.06;;;-145.95;100.00
37648;BME280;23490;53.656;10.076;2023-03-22T00:13:32;99345.72;;;-145.95;100.00
37648;BME280;23490;53.656;10.076;2023-03-22T00:15:58;99314.75;;;-145.95;100.00
37648;BME280;23490;53.656;10.076;2023-03-22T00:18:24;99306.50;;;-145.95;100.00
37648;BME280;23490;53.656;10.076;2023-03-22T00:20:52;99343.66;;;-145.95;100.00
37648;BME280;23490;53.656;10.076;2023-03-22T00:23:18;99302.34;;;-145.95;100.00
37648;BME280;23490;53.656;10.076;2023-03-22T00:25:44;99306.50;;;-145.95;100.00
37648;BME280;23490;53.656;10.076;2023-03-22T00:28:09;99298.22;;;-145.95;100.00
37648;BME280;23490;53.656;10.076;2023-03-22T00:30:35;99281.72;;;-145.95;100.00
37648;BME280;23490;53.656;10.076;2023-03-22T00:33:01;99318.88;;;-145.95;100.00
37648;BME280;23490;53.656;10.076;2023-03-22T00:35:26;99294.09;;;-145.95;100.00
37648;BME280;23490;53.656;10.076;2023-03-22T00:37:51;99300.28;;;-145.95;100.00
37648;BME280;23490;53.656;10.076;2023-03-22T00:40:17;99289.97;;;-145.95;100.00
37648;BME280;23490;53.656;10.076;2023-03-22T00:42:42;99287.91;;;-145.95;100.00
37648;BME280;23490;53.656;10.076;2023-03-22T00:45:09;99277.56;;;-145.95;100.00
37648;BME280;23490;53.656;10.076;2023-03-22T00:47:36;99316.81;;;-145.95;100.00
37648;BME280;23490;53.656;10.076;2023-03-22T00:50:02;99277.56;;;-145.95;100.00
37648;BME280;23490;53.656;10.076;2023-03-22T00:52:27;99281.72;;;-145.95;100.00
37648;BME280;23490;53.656;10.076;2023-03-22T00:54:54;99271.38;;;-145.95;100.00
37648;BME280;23490;53.656;10.076;2023-03-22T00:57:20;99306.50;;;-145.95;100.00
37648;BME280;23490;53.656;10.076;2023-03-22T00:59:45;99302.34;;;-145.95;100.00
37648;BME280;23490;53.656;10.076;2023-03-22T01:02:11;99314.75;;;-145.95;100.00
37648;BME280;23490;53.656;10.076;2023-03-22T01:04:42;99356.06;;;-145.95;100.00
37648;BME280;23490;53.656;10.076;2023-03-22T01:07:15;99289.97;;;-145.95;100.00
37648;BME280;23490;53.656;10.076;2023-03-22T01:09:43;99310.63;;;-145.95;100.00
37648;BME280;23490;53.656;10.076;2023-03-22T01:12:09;99287.91;;;-145.95;100.00
37648;BME280;23490;53.656;10.076;2023-03-22T01:14:35;99298.22;;;-145.95;100.00
37648;BME280;23490;53.656;10.076;2023-03-22T01:17:00;99331.28;;;-145.95;100.00
37648;BME280;23490;53.656;10.076;2023-03-22T01:19:26;99298.22;;;-145.95;100.00
37648;BME280;23490;53.656;10.076;2023-03-22T01:21:52;99310.63;;;-145.95;100.00
37648;BME280;23490;53.656;10.076;2023-03-22T01:24:18;99347.78;;;-145.95;100.00
37648;BME280;23490;53.656;10.076;2023-03-22T01:26:43;99298.22;;;-145.95;100.00
37648;BME280;23490;53.656;10.076;2023-03-22T01:29:08;99302.34;;;-145.95;100.00
37648;BME280;23490;53.656;10.076;2023-03-22T01:31:34;99318.88;;;-145.95;100.00
37648;BME280;23490;53.656;10.076;2023-03-22T01:33:59;99294.09;;;-145.95;100.00
37648;BME280;23490;53.656;10.076;2023-03-22T01:36:25;99261.06;;;-145.95;100.00
37648;BME280;23490;53.656;10.076;2023-03-22T01:38:50;99283.78;;;-145.95;100.00
37648;BME280;23490;53.656;10.076;2023-03-22T01:41:16;99277.56;;;-145.95;100.00
37648;BME280;23490;53.656;10.076;2023-03-22T01:43:41;99318.88;;;-145.95;100.00
37648;BME280;23490;53.656;10.076;2023-03-22T01:46:07;99304.41;;;-145.95;100.00
37648;BME280;23490;53.656;10.076;2023-03-22T01:48:36;99306.50;;;-145.95;100.00
37648;BME280;23490;53.656;10.076;2023-03-22T01:51:11;99273.44;;;-145.95;100.00
37648;BME280;23490;53.656;10.076;2023-03-22T01:53:50;99306.50;;;-145.95;100.00
37648;BME280;23490;53.656;10.076;2023-03-22T01:56:18;99283.78;;;-145.95;100.00
37648;BME280;23490;53.656;10.076;2023-03-22T01:58:45;99281.72;;;-145.95;100.00
37648;BME280;23490;53.656;10.076;2023-03-22T02:01:11;99261.06;;;-145.95;100.00
37648;BME280;23490;53.656;10.076;2023-03-22T02:06:05;99289.97;;;-145.95;100.00
37648;BME280;23490;53.656;10.076;2023-03-22T02:08:31;99294.09;;;-145.95;100.00
37648;BME280;23490;53.656;10.076;2023-03-22T02:10:58;99302.34;;;-145.95;100.00
37648;BME280;23490;53.656;10.076;2023-03-22T02:13:35;99283.78;;;-145.95;100.00
37648;BME280;23490;53.656;10.076;2023-03-22T02:18:53;99327.13;;;-145.95;100.00
37648;BME280;23490;53.656;10.076;2023-03-22T02:29:57;99331.28;;;-145.95;100.00
37648;BME280;23490;53.656;10.076;2023-03-22T02:35:29;99298.22;;;-145.95;100.00
37648;BME280;23490;53.656;10.076;2023-03-22T02:40:49;99281.72;;;-145.95;100.00
37648;BME280;23490;53.656;10.076;2023-03-22T02:43:35;99327.13;;;-145.95;100.00
37648;BME280;23490;53.656;10.076;2023-03-22T02:46:10;99318.88;;;-145.95;100.00
37648;BME280;23490;53.656;10.076;2023-03-22T02:48:52;99289.97;;;-145.95;100.00
37648;BME280;23490;53.656;10.076;2023-03-22T02:51:23;99292.03;;;-145.95;100.00
37648;BME280;23490;53.656;10.076;2023-03-22T02:54:04;99281.72;;;-145.95;100.00
37648;BME280;23490;53.656;10.076;2023-03-22T02:56:41;99339.53;;;-145.95;100.00
37648;BME280;23490;53.656;10.076;2023-03-22T02:59:09;99289.97;;;-145.95;100.00
37648;BME280;23490;53.656;10.076;2023-03-22T03:01:39;99275.50;;;-145.95;100.00
37648;BME280;23490;53.656;10.076;2023-03-22T03:04:08;99351.91;;;-145.95;100.00
37648;BME280;23490;53.656;10.076;2023-03-22T03:06:37;99246.59;;;-145.95;100.00
37648;BME280;23490;53.656;10.076;2023-03-22T03:09:05;99285.84;;;-145.95;100.00
37648;BME280;23490;53.656;10.076;2023-03-22T03:11:31;99261.06;;;-145.95;100.00
37648;BME280;23490;53.656;10.076;2023-03-22T03:13:57;99292.03;;;-145.95;100.00
37648;BME280;23490;53.656;10.076;2023-03-22T03:16:27;99331.28;;;-145.95;100.00
37648;BME280;23490;53.656;10.076;2023-03-22T03:18:58;99318.88;;;-145.95;100.00
37648;BME280;23490;53.656;10.076;2023-03-22T03:24:16;99314.75;;;-145.95;100.00
37648;BME280;23490;53.656;10.076;2023-03-22T03:27:14;99339.53;;;-145.95;100.00
37648;BME280;23490;53.656;10.076;2023-03-22T03:29:58;99314.75;;;-145.95;100.00
37648;BME280;23490;53.656;10.076;2023-03-22T03:32:31;99318.88;;;-145.95;100.00
37648;BME280;23490;53.656;10.076;2023-03-22T03:35:21;99292.03;;;-145.95;100.00
37648;BME280;23490;53.656;10.076;2023-03-22T03:37:56;99269.31;;;-145.95;100.00
37648;BME280;23490;53.656;10.076;2023-03-22T03:40:27;99285.84;;;-145.95;100.00
37648;BME280;23490;53.656;10.076;2023-03-22T03:42:56;99318.88;;;-145.95;100.00
37648;BME280;23490;53.656;10.076;2023-03-22T03:45:24;99306.50;;;-145.95;100.00
37648;BME280;23490;53.656;10.076;2023-03-22T03:47:51;99285.84;;;-145.95;100.00
37648;BME280;23490;53.656;10.076;2023-03-22T03:50:22;99279.63;;;-145.95;100.00
37648;BME280;23490;53.656;10.076;2023-03-22T03:52:50;99302.34;;;-145.95;100.00
37648;BME280;23490;53.656;10.076;2023-03-22T03:55:15;99277.56;;;-145.95;100.00
37648;BME280;23490;53.656;10.076;2023-03-22T03:57:41;99236.28;;;-145.95;100.00
37648;BME280;23490;53.656;10.076;2023-03-22T04:00:07;99252.78;;;-145.95;100.00
37648;BME280;23490;53.656;10.076;2023-03-22T04:02:33;99269.31;;;-145.95;100.00
37648;BME280;23490;53.656;10.076;2023-03-22T04:04:58;99215.63;;;-145.95;100.00
37648;BME280;23490;53.656;10.076;2023-03-22T04:07:25;99265.19;;;-145.95;100.00
37648;BME280;23490;53.656;10.076;2023-03-22T04:09:50;99248.66;;;-145.95;100.00
37648;BME280;23490;53.656;10.076;2023-03-22T04:12:15;99221.81;;;-145.95;100.00
37648;BME280;23490;53.656;10.076;2023-03-22T04:14:41;99265.19;;;-145.95;100.00
37648;BME280;23490;53.656;10.076;2023-03-22T04:17:06;99240.41;;;-145.95;100.00
37648;BME280;23490;53.656;10.076;2023-03-22T04:19:31;99215.63;;;-145.95;100.00
37648;BME280;23490;53.656;10.076;2023-03-22T04:21:57;99223.88;;;-145.95;100.00
37648;BME280;23490;53.656;10.076;2023-03-22T04:24:22;99213.56;;;-145.95;100.00
37648;BME280;23490;53.656;10.076;2023-03-22T04:26:48;99256.94;;;-145.95;100.00
37648;BME280;23490;53.656;10.076;2023-03-22T04:29:13;99236.28;;;-145.95;100.00
37648;BME280;23490;53.656;10.076;2023-03-22T04:31:39;99236.28;;;-145.95;100.00
37648;BME280;23490;53.656;10.076;2023-03-22T04:34:05;99244.53;;;-145.95;100.00
37648;BME280;23490;53.656;10.076;2023-03-22T04:36:36;99269.31;;;-145.95;100.00
37648;BME280;23490;53.656;10.076;2023-03-22T04:39:06;99238.34;;;-145.95;100.00
37648;BME280;23490;53.656;10.076;2023-03-22T04:41:33;99232.16;;;-145.95;100.00
37648;BME280;23490;53.656;10.076;2023-03-22T04:44:00;99232.16;;;-145.95;100.00
37648;BME280;23490;53.656;10.076;2023-03-22T04:46:32;99219.75;;;-145.95;100.00
37648;BME280;23490;53.656;10.076;2023-03-22T04:48:58;99269.31;;;-145.95;100.00
37648;BME280;23490;53.656;10.076;2023-03-22T04:51:25;99223.88;;;-145.95;100.00
37648;BME280;23490;53.656;10.076;2023-03-22T04:53:51;99252.78;;;-145.95;100.00
37648;BME280;23490;53.656;10.076;2023-03-22T04:56:17;99236.28;;;-145.95;100.00
37648;BME280;23490;53.656;10.076;2023-03-22T04:58:43;99230.06;;;-145.95;100.00
37648;BME280;23490;53.656;10.076;2023-03-22T05:01:10;99228.00;;;-145.95;100.00
37648;BME280;23490;53.656;10.076;2023-03-22T05:03:36;99240.41;;;-145.95;100.00
37648;BME280;23490;53.656;10.076;2023-03-22T05:06:04;99199.09;;;-145.95;100.00
37648;BME280;23490;53.656;10.076;2023-03-22T05:08:31;99217.69;;;-145.95;100.00
37648;BME280;23490;53.656;10.076;2023-03-22T05:10:58;99261.06;;;-145.95;100.00
37648;BME280;23490;53.656;10.076;2023-03-22T05:13:25;99273.44;;;-145.95;100.00
37648;BME280;23490;53.656;10.076;2023-03-22T05:15:52;99267.25;;;-145.95;100.00
37648;BME280;23490;53.656;10.076;2023-03-22T05:18:19;99236.28;;;-145.95;100.00
37648;BME280;23490;53.656;10.076;2023-03-22T05:20:46;99250.72;;;-145.95;100.00
37648;BME280;23490;53.656;10.076;2023-03-22T05:23:13;99252.78;;;-145.95;100.00
37648;BME280;23490;53.656;10.076;2023-03-22T05:25:43;99273.44;;;-145.95;100.00
37648;BME280;23490;53.656;10.076;2023-03-22T05:28:09;99234.22;;;-145.95;100.00
37648;BME280;23490;53.656;10.076;2023-03-22T05:30:35;99234.22;;;-145.95;100.00
37648;BME280;23490;53.656;10.076;2023-03-22T05:33:03;99240.41;;;-145.95;100.00
37648;BME280;23490;53.656;10.076;2023-03-22T05:35:33;99211.50;;;-145.95;100.00
37648;BME280;23490;53.656;10.076;2023-03-22T05:37:59;99223.88;;;-145.95;100.00
37648;BME280;23490;53.656;10.076;2023-03-22T05:40:25;99188.78;;;-145.95;100.00
37648;BME280;23490;53.656;10.076;2023-03-22T05:42:52;99232.16;;;-145.95;100.00
37648;BME280;23490;53.656;10.076;2023-03-22T05:45:18;99211.50;;;-145.95;100.00
37648;BME280;23490;53.656;10.076;2023-03-22T05:47:43;99205.28;;;-145.95;100.00
37648;BME280;23490;53.656;10.076;2023-03-22T05:50:11;99256.94;;;-145.95;100.00
37648;BME280;23490;53.656;10.076;2023-03-22T05:52:38;99232.16;;;-145.95;100.00
37648;BME280;23490;53.656;10.076;2023-03-22T05:55:04;99211.50;;;-145.95;100.00
37648;BME280;23490;53.656;10.076;2023-03-22T05:57:31;99194.97;;;-145.95;100.00
37648;BME280;23490;53.656;10.076;2023-03-22T05:59:56;99240.41;;;-145.95;100.00
37648;BME280;23490;53.656;10.076;2023-03-22T06:02:22;99184.66;;;-145.95;100.00
37648;BME280;23490;53.656;10.076;2023-03-22T06:04:48;99209.44;;;-145.95;100.00
37648;BME280;23490;53.656;10.076;2023-03-22T06:07:14;99205.28;;;-145.95;100.00
37648;BME280;23490;53.656;10.076;2023-03-22T06:09:39;99170.19;;;-145.95;100.00
37648;BME280;23490;53.656;10.076;2023-03-22T06:12:05;99194.97;;;-145.95;100.00
37648;BME280;23490;53.656;10.076;2023-03-22T06:14:31;99184.66;;;-145.95;100.00
37648;BME280;23490;53.656;10.076;2023-03-22T06:16:56;99199.09;;;-145.95;100.00
37648;BME280;23490;53.656;10.076;2023-03-22T06:19:22;99190.84;;;-145.95;100.00
37648;BME280;23490;53.656;10.076;2023-03-22T06:21:47;99190.84;;;-145.95;100.00
37648;BME280;23490;53.656;10.076;2023-03-22T06:24:13;99116.50;;;-145.95;100.00
37648;BME280;23490;53.656;10.076;2023-03-22T06:26:38;99164.00;;;-145.95;100.00
37648;BME280;23490;53.656;10.076;2023-03-22T06:29:03;99161.94;;;-145.95;100.00
37648;BME280;23490;53.656;10.076;2023-03-22T06:31:29;99108.25;;;-145.95;100.00
37648;BME280;23490;53.656;10.076;2023-03-22T06:33:54;99137.16;;;-145.95;100.00
37648;BME280;23490;53.656;10.076;2023-03-22T06:36:20;99106.16;;;-145.95;100.00
37648;BME280;23490;53.656;10.076;2023-03-22T06:38:46;99126.81;;;-145.95;100.00
37648;BME280;23490;53.656;10.076;2023-03-22T06:41:11;99133.03;;;-145.95;100.00
37648;BME280;23490;53.656;10.076;2023-03-22T06:43:37;99104.09;;;-145.95;100.00
37648;BME280;23490;53.656;10.076;2023-03-22T06:46:02;99135.09;;;-145.95;100.00
37648;BME280;23490;53.656;10.076;2023-03-22T06:48:28;99112.38;;;-145.95;99.75
37648;BME280;23490;53.656;10.076;2023-03-22T06:50:53;99133.03;;;-145.95;100.00
37648;BME280;23490;53.656;10.076;2023-03-22T06:53:18;99133.03;;;-145.95;100.00
37648;BME280;23490;53.656;10.076;2023-03-22T06:55:44;99128.88;;;-145.95;99.93
37648;BME280;23490;53.656;10.076;2023-03-22T06:58:09;99137.16;;;-145.95;99.35
37648;BME280;23490;53.656;10.076;2023-03-22T07:00:35;99128.88;;;-145.95;98.32
37648;BME280;23490;53.656;10.076;2023-03-22T07:03:00;99087.59;;;-145.95;98.18
37648;BME280;23490;53.656;10.076;2023-03-22T07:05:25;99079.34;;;-145.95;97.28
37648;BME280;23490;53.656;10.076;2023-03-22T07:07:51;99112.38;;;-145.95;97.09
37648;BME280;23490;53.656;10.076;2023-03-22T07:10:16;99120.63;;;-145.95;97.64
37648;BME280;23490;53.656;10.076;2023-03-22T07:12:42;99075.19;;;-145.95;97.27
37648;BME280;23490;53.656;10.076;2023-03-22T07:15:07;99118.56;;;-145.95;97.84
37648;BME280;23490;53.656;10.076;2023-03-22T07:17:32;99081.41;;;-145.95;95.45
37648;BME280;23490;53.656;10.076;2023-03-22T07:19:58;99066.94;;;-145.95;94.96
37648;BME280;23490;53.656;10.076;2023-03-22T07:22:23;99064.88;;;-145.95;96.95
37648;BME280;23490;53.656;10.076;2023-03-22T07:24:49;99066.94;;;-145.95;95.62
37648;BME280;23490;53.656;10.076;2023-03-22T07:27:16;99054.56;;;-145.95;94.81
37648;BME280;23490;53.656;10.076;2023-03-22T07:29:41;99062.81;;;-145.95;96.26
37648;BME280;23490;53.656;10.076;2023-03-22T07:32:07;99075.19;;;-145.95;96.21
37648;BME280;23490;53.656;10.076;2023-03-22T07:34:32;99081.41;;;-145.95;96.07
37648;BME280;23490;53.656;10.076;2023-03-22T07:36:57;99054.56;;;-145.95;96.67
37648;BME280;23490;53.656;10.076;2023-03-22T07:39:23;99083.47;;;-145.95;97.54
37648;BME280;23490;53.656;10.076;2023-03-22T07:41:49;99029.78;;;-145.95;96.89
37648;BME280;23490;53.656;10.076;2023-03-22T07:44:15;99087.59;;;-145.95;97.64
37648;BME280;23490;53.656;10.076;2023-03-22T07:46:41;99073.13;;;-145.95;97.54
37648;BME280;23490;53.656;10.076;2023-03-22T07:49:06;99058.69;;;-145.95;96.82
37648;BME280;23490;53.656;10.076;2023-03-22T07:51:32;99066.94;;;-145.95;97.07
37648;BME280;23490;53.656;10.076;2023-03-22T07:53:57;99058.69;;;-145.95;96.16
37648;BME280;23490;53.656;10.076;2023-03-22T07:56:22;99040.09;;;-145.95;95.97
37648;BME280;23490;53.656;10.076;2023-03-22T07:58:48;99000.84;;;-145.95;96.32
37648;BME280;23490;53.656;10.076;2023-03-22T08:01:13;99029.78;;;-145.95;96.21
37648;BME280;23490;53.656;10.076;2023-03-22T08:03:38;99042.16;;;-145.95;96.97
37648;BME280;23490;53.656;10.076;2023-03-22T08:06:05;99017.38;;;-145.95;96.42
37648;BME280;23490;53.656;10.076;2023-03-22T08:08:33;99013.25;;;-145.95;96.77
37648;BME280;23490;53.656;10.076;2023-03-22T08:10:59;99023.56;;;-145.95;97.38
37648;BME280;23490;53.656;10.076;2023-03-22T08:13:24;99038.03;;;-145.95;97.45
37648;BME280;23490;53.656;10.076;2023-03-22T08:15:50;99007.06;;;-145.95;96.46
37648;BME280;23490;53.656;10.076;2023-03-22T08:18:15;99033.91;;;-145.95;97.12
37648;BME280;23490;53.656;10.076;2023-03-22T08:20:40;99025.63;;;-145.95;97.44
37648;BME280;23490;53.656;10.076;2023-03-22T08:23:10;99011.19;;;-145.95;96.23
37648;BME280;23490;53.656;10.076;2023-03-22T08:25:41;99009.13;;;-145.95;97.44
37648;BME280;23490;53.656;10.076;2023-03-22T08:28:07;99013.25;;;-145.95;97.09
37648;BME280;23490;53.656;10.076;2023-03-22T08:30:32;98974.00;;;-145.95;96.94
37648;BME280;23490;53.656;10.076;2023-03-22T08:32:58;98918.25;;;-145.95;95.26
37648;BME280;23490;53.656;10.076;2023-03-22T08:35:23;98976.09;;;-145.95;95.82
37648;BME280;23490;53.656;10.076;2023-03-22T08:37:52;98936.84;;;-145.95;96.01
37648;BME280;23490;53.656;10.076;2023-03-22T08:40:17;98905.88;;;-145.95;93.66
37648;BME280;23490;53.656;10.076;2023-03-22T08:42:43;98879.03;;;-145.95;94.20
37648;BME280;23490;53.656;10.076;2023-03-22T08:45:08;98926.53;;;-145.95;93.12
37648;BME280;23490;53.656;10.076;2023-03-22T08:47:34;98827.41;;;-145.95;91.92
37648;BME280;23490;53.656;10.076;2023-03-22T08:50:00;98732.44;;;-145.95;89.53
37648;BME280;23490;53.656;10.076;2023-03-22T08:52:25;98711.78;;;-145.95;87.33
37648;BME280;23490;53.656;10.076;2023-03-22T08:54:50;98732.44;;;-145.95;86.60
37648;BME280;23490;53.656;10.076;2023-03-22T08:57:18;98744.81;;;-145.95;86.23
37648;BME280;23490;53.656;10.076;2023-03-22T08:59:45;98740.69;;;-145.95;87.49
37648;BME280;23490;53.656;10.076;2023-03-22T09:02:10;98699.38;;;-145.95;86.11
37648;BME280;23490;53.656;10.076;2023-03-22T09:04:36;98711.78;;;-145.95;84.64
37648;BME280;23490;53.656;10.076;2023-03-22T09:07:02;98699.38;;;-145.95;83.53
37648;BME280;23490;53.656;10.076;2023-03-22T09:09:27;98633.31;;;-145.95;83.36
37648;BME280;23490;53.656;10.076;2023-03-22T09:11:52;98552.78;;;-145.95;81.04
37648;BME280;23490;53.656;10.076;2023-03-22T09:14:18;98579.63;;;-145.95;79.84
37648;BME280;23490;53.656;10.076;2023-03-22T09:16:43;98480.53;;;-145.95;78.31
37648;BME280;23490;53.656;10.076;2023-03-22T09:19:09;98435.09;;;-145.95;75.41
37648;BME280;23490;53.656;10.076;2023-03-22T09:21:35;98472.28;;;-145.95;76.40
37648;BME280;23490;53.656;10.076;2023-03-22T09:24:00;98461.94;;;-145.95;74.73
37648;BME280;23490;53.656;10.076;2023-03-22T09:26:26;98443.38;;;-145.95;74.45
37648;BME280;23490;53.656;10.076;2023-03-22T09:28:51;98579.63;;;-145.95;75.39
37648;BME280;23490;53.656;10.076;2023-03-22T09:31:17;98629.19;;;-145.95;75.97
37648;BME280;23490;53.656;10.076;2023-03-22T09:33:43;98620.94;;;-145.95;77.57
37648;BME280;23490;53.656;10.076;2023-03-22T09:36:09;98587.88;;;-145.95;76.99
37648;BME280;23490;53.656;10.076;2023-03-22T09:38:36;98610.59;;;-145.95;77.56
37648;BME280;23490;53.656;10.076;2023-03-22T09:43:35;98641.56;;;-145.95;78.66
37648;BME280;23490;53.656;10.076;2023-03-22T09:46:04;98604.41;;;-145.95;77.67
37648;BME280;23490;53.656;10.076;2023-03-22T09:48:32;98664.28;;;-145.95;78.91
37648;BME280;23490;53.656;10.076;2023-03-22T09:51:02;98699.38;;;-145.95;79.35
37648;BME280;23490;53.656;10.076;2023-03-22T09:53:28;98699.38;;;-145.95;78.22
37648;BME280;23490;53.656;10.076;2023-03-22T09:56:00;98728.28;;;-145.95;80.47
37648;BME280;23490;53.656;10.076;2023-03-22T09:59:05;98711.78;;;-145.95;79.70
37648;BME280;23490;53.656;10.076;2023-03-22T10:07:33;98670.47;;;-145.95;78.82
37648;BME280;23490;53.656;10.076;2023-03-22T10:10:13;98658.09;;;-145.95;79.39
37648;BME280;23490;53.656;10.076;2023-03-22T10:12:49;98697.31;;;-145.95;76.26
37648;BME280;23490;53.656;10.076;2023-03-22T10:15:28;98633.31;;;-145.95;75.33
37648;BME280;23490;53.656;10.076;2023-03-22T10:17:56;98645.69;;;-145.95;76.74
37648;BME280;23490;53.656;10.076;2023-03-22T10:20:44;98627.13;;;-145.95;75.83
37648;BME280;23490;53.656;10.076;2023-03-22T10:23:19;98674.59;;;-145.95;74.50
37648;BME280;23490;53.656;10.076;2023-03-22T10:25:46;98660.16;;;-145.95;74.38
37648;BME280;23490;53.656;10.076;2023-03-22T10:28:21;98717.97;;;-145.95;76.48
37648;BME280;23490;53.656;10.076;2023-03-22T10:30:55;98720.03;;;-145.95;74.96
37648;BME280;23490;53.656;10.076;2023-03-22T10:36:03;98670.47;;;-145.95;74.81
37648;BME280;23490;53.656;10.076;2023-03-22T10:38:31;98672.53;;;-145.95;75.62
37648;BME280;23490;53.656;10.076;2023-03-22T10:40:59;98674.59;;;-145.95;74.18
37648;BME280;23490;53.656;10.076;2023-03-22T10:43:34;98653.97;;;-145.95;75.16
37648;BME280;23490;53.656;10.076;2023-03-22T10:46:02;98645.69;;;-145.95;74.63
37648;BME280;23490;53.656;10.076;2023-03-22T10:48:40;98674.59;;;-145.95;73.29
37648;BME280;23490;53.656;10.076;2023-03-22T10:51:14;98676.69;;;-145.95;72.78
37648;BME280;23490;53.656;10.076;2023-03-22T10:53:47;98662.22;;;-145.95;74.28
37648;BME280;23490;53.656;10.076;2023-03-22T10:56:16;98633.31;;;-145.95;73.29
37648;BME280;23490;53.656;10.076;2023-03-22T10:58:43;98656.03;;;-145.95;72.48
37648;BME280;23490;53.656;10.076;2023-03-22T11:01:12;98563.13;;;-145.95;70.61
37648;BME280;23490;53.656;10.076;2023-03-22T11:03:39;98565.19;;;-145.95;69.94
37648;BME280;23490;53.656;10.076;2023-03-22T11:06:07;98579.63;;;-145.95;71.03
37648;BME280;23490;53.656;10.076;2023-03-22T11:08:58;98703.53;;;-145.95;71.53
37648;BME280;23490;53.656;10.076;2023-03-22T11:11:34;98645.69;;;-145.95;70.60
37648;BME280;23490;53.656;10.076;2023-03-22T11:16:51;98606.47;;;-145.95;70.17
37648;BME280;23490;53.656;10.076;2023-03-22T11:19:25;98625.06;;;-145.95;69.97
37648;BME280;23490;53.656;10.076;2023-03-22T11:21:53;98575.50;;;-145.95;70.38
37648;BME280;23490;53.656;10.076;2023-03-22T11:24:19;98592.03;;;-145.95;70.43
37648;BME280;23490;53.656;10.076;2023-03-22T11:27:02;98571.38;;;-145.95;70.96
37648;BME280;23490;53.656;10.076;2023-03-22T11:29:27;98565.19;;;-145.95;67.72
37648;BME280;23490;53.656;10.076;2023-03-22T11:34:21;98656.03;;;-145.95;69.16
37648;BME280;23490;53.656;10.076;2023-03-22T11:36:47;98649.84;;;-145.95;70.87
37648;BME280;23490;53.656;10.076;2023-03-22T11:39:22;98629.19;;;-145.95;69.99
37648;BME280;23490;53.656;10.076;2023-03-22T11:41:48;98662.22;;;-145.95;69.36
37648;BME280;23490;53.656;10.076;2023-03-22T11:44:16;98637.44;;;-145.95;69.95
37648;BME280;23490;53.656;10.076;2023-03-22T11:46:55;98645.69;;;-145.95;69.34
37648;BME280;23490;53.656;10.076;2023-03-22T11:49:24;98658.09;;;-145.95;70.96
37648;BME280;23490;53.656;10.076;2023-03-22T11:51:53;98620.94;;;-145.95;70.18
37648;BME280;23490;53.656;10.076;2023-03-22T11:54:28;98629.19;;;-145.95;69.85
37648;BME280;23490;53.656;10.076;2023-03-22T11:56:57;98662.22;;;-145.95;69.33
37648;BME280;23490;53.656;10.076;2023-03-22T11:59:29;98625.06;;;-145.95;70.57
37648;BME280;23490;53.656;10.076;2023-03-22T12:02:17;98629.19;;;-145.95;69.58
37648;BME280;23490;53.656;10.076;2023-03-22T12:04:47;98608.53;;;-145.95;68.64
37648;BME280;23490;53.656;10.076;2023-03-22T12:07:18;98649.84;;;-145.95;68.83
37648;BME280;23490;53.656;10.076;2023-03-22T12:10:00;98618.88;;;-145.95;69.10
37648;BME280;23490;53.656;10.076;2023-03-22T12:12:35;98612.66;;;-145.95;68.81
37648;BME280;23490;53.656;10.076;2023-03-22T12:15:09;98629.19;;;-145.95;67.08
37648;BME280;23490;53.656;10.076;2023-03-22T12:17:44;98666.34;;;-145.95;67.62
37648;BME280;23490;53.656;10.076;2023-03-22T12:22:52;98612.66;;;-145.95;67.69
37648;BME280;23490;53.656;10.076;2023-03-22T12:25:21;98596.16;;;-145.95;68.23
37648;BME280;23490;53.656;10.076;2023-03-22T12:27:53;98620.94;;;-145.95;67.83
37648;BME280;23490;53.656;10.076;2023-03-22T12:30:26;98629.19;;;-145.95;67.31
37648;BME280;23490;53.656;10.076;2023-03-22T12:33:07;98649.84;;;-145.95;68.03
37648;BME280;23490;53.656;10.076;2023-03-22T12:35:35;98662.22;;;-145.95;68.75
37648;BME280;23490;53.656;10.076;2023-03-22T12:38:48;98633.31;;;-145.95;69.06
37648;BME280;23490;53.656;10.076;2023-03-22T12:41:20;98645.69;;;-145.95;69.52
37648;BME280;23490;53.656;10.076;2023-03-22T12:43:57;98715.91;;;-145.95;69.65
37648;BME280;23490;53.656;10.076;2023-03-22T12:46:37;98635.38;;;-145.95;70.01
37648;BME280;23490;53.656;10.076;2023-03-22T12:51:43;98618.88;;;-145.95;69.74
37648;BME280;23490;53.656;10.076;2023-03-22T12:54:10;98662.22;;;-145.95;69.34
37648;BME280;23490;53.656;10.076;2023-03-22T12:56:41;98666.34;;;-145.95;70.37
37648;BME280;23490;53.656;10.076;2023-03-22T12:59:14;98612.66;;;-145.95;71.77
37648;BME280;23490;53.656;10.076;2023-03-22T13:01:53;98736.56;;;-145.95;73.07
37648;BME280;23490;53.656;10.076;2023-03-22T13:09:48;98790.25;;;-145.95;79.91
37648;BME280;23490;53.656;10.076;2023-03-22T13:19:59;98839.78;;;-145.95;84.09
37648;BME280;23490;53.656;10.076;2023-03-22T13:22:28;98806.75;;;-145.95;86.47
37648;BME280;23490;53.656;10.076;2023-03-22T13:27:51;98825.34;;;-145.95;87.62
37648;BME280;23490;53.656;10.076;2023-03-22T13:33:27;98879.03;;;-145.95;90.87
37648;BME280;23490;53.656;10.076;2023-03-22T13:35:55;98881.09;;;-145.95;88.66